Time;durP1;ratioP1;P1;durP2;ratioP2;P2;SDS_P1;SDS_P2;PMS_P1;PMS_P2;Temp;Humidity;BMP_temperature;BMP_pressure;BME280_temperature;BME280_humidity;BME280_pressure;Samples;Min_cycle;Max_cycle;Signal;HPM_P1;HPM_P2
2022/03/15 00:00:10;;;;;;;17.45;8.00;;;;;;;-1.00;100.00;100617.13;5154002;27;20047;-60
2022/03/15 00:02:37;;;;;;;17.90;8.15;;;;;;;-1.05;100.00;100631.34;5154295;27;20054;-60
2022/03/15 00:05:03;;;;;;;18.95;8.52;;;;;;;-1.09;100.00;100640.19;5153934;27;20089;-60
2022/03/15 00:07:29;;;;;;;17.85;8.68;;;;;;;-1.07;100.00;100657.69;5154040;27;20058;-61
2022/03/15 00:09:55;;;;;;;19.85;8.48;;;;;;;-1.08;100.00;100669.53;5154060;27;20475;-60
2022/03/15 00:12:22;;;;;;;19.15;8.23;;;;;;;-1.07;100.00;100673.03;5154099;27;20050;-61
2022/03/15 00:14:49;;;;;;;21.00;9.02;;;;;;;-1.10;100.00;100679.75;5154064;27;20053;-60
2022/03/15 00:17:15;;;;;;;20.73;8.40;;;;;;;-1.18;100.00;100672.09;5153822;27;20054;-60
2022/03/15 00:19:41;;;;;;;26.60;10.30;;;;;;;-1.24;100.00;100676.59;5153872;27;20046;-60
2022/03/15 00:22:08;;;;;;;27.77;10.00;;;;;;;-1.26;100.00;100686.00;5153763;27;20053;-60
2022/03/15 00:24:34;;;;;;;23.42;10.27;;;;;;;-1.29;100.00;100694.56;5153706;27;20043;-60
2022/03/15 00:27:00;;;;;;;24.13;10.27;;;;;;;-1.26;100.00;100705.66;5153851;27;20084;-61
2022/03/15 00:29:27;;;;;;;22.02;9.98;;;;;;;-1.25;100.00;100718.03;5153872;27;20053;-61
2022/03/15 00:31:54;;;;;;;27.63;9.63;;;;;;;-1.28;100.00;100723.91;5153786;27;20137;-60
2022/03/15 00:34:20;;;;;;;24.92;9.30;;;;;;;-1.23;100.00;100742.03;5154008;27;20058;-61
2022/03/15 00:36:48;;;;;;;21.17;9.25;;;;;;;-1.24;100.00;100749.25;5153417;27;20050;-61
2022/03/15 00:39:16;;;;;;;25.08;10.68;;;;;;;-1.21;100.00;100751.44;5153667;27;20051;-60
2022/03/15 00:41:42;;;;;;;32.65;12.60;;;;;;;-1.21;100.00;100753.31;5152551;27;20096;-60
2022/03/15 00:44:09;;;;;;;24.08;10.35;;;;;;;-1.29;100.00;100735.75;5153509;27;20051;-60
2022/03/15 00:46:35;;;;;;;26.88;10.05;;;;;;;-1.28;100.00;100744.63;5153501;27;20050;-60
2022/03/15 00:49:03;;;;;;;24.67;9.98;;;;;;;-1.27;100.00;100755.13;5153547;27;20046;-60
2022/03/15 00:51:29;;;;;;;22.45;10.18;;;;;;;-1.27;100.00;100757.81;5153565;27;20061;-60
2022/03/15 00:53:56;;;;;;;27.05;10.48;;;;;;;-1.25;100.00;100758.41;5153457;27;20114;-60
2022/03/15 00:56:22;;;;;;;25.17;9.55;;;;;;;-1.27;100.00;100755.13;5153686;27;20050;-61
2022/03/15 00:58:48;;;;;;;17.40;8.57;;;;;;;-1.20;100.00;100758.47;5153678;27;20459;-60
2022/03/15 01:01:15;;;;;;;17.88;9.10;;;;;;;-1.15;100.00;100763.09;5153562;27;20099;-60
2022/03/15 01:03:41;;;;;;;32.75;9.35;;;;;;;-1.19;100.00;100756.59;5153121;27;20055;-60
2022/03/15 01:06:09;;;;;;;25.50;9.32;;;;;;;-1.17;100.00;100746.38;5153370;27;20050;-60
2022/03/15 01:08:35;;;;;;;21.98;10.40;;;;;;;-1.16;100.00;100742.66;5153011;27;20502;-60
2022/03/15 01:11:05;;;;;;;18.90;8.52;;;;;;;-1.24;100.00;100733.09;5152871;27;20524;-60
2022/03/15 01:13:32;;;;;;;19.83;9.27;;;;;;;-1.25;100.00;100738.75;5153286;27;20417;-61
2022/03/15 01:15:58;;;;;;;23.58;9.55;;;;;;;-1.30;100.00;100733.28;5153232;27;20051;-61
2022/03/15 01:18:24;;;;;;;19.05;8.27;;;;;;;-1.40;100.00;100727.75;5153040;27;20592;-60
2022/03/15 01:20:51;;;;;;;13.75;7.65;;;;;;;-1.46;100.00;100733.09;5153159;27;20042;-60
2022/03/15 01:23:18;;;;;;;24.02;8.20;;;;;;;-1.51;100.00;100743.75;5153144;27;20375;-60
2022/03/15 01:25:44;;;;;;;17.90;7.63;;;;;;;-1.51;100.00;100753.69;5152694;27;20464;-61
2022/03/15 01:28:11;;;;;;;19.90;8.20;;;;;;;-1.49;100.00;100767.72;5153006;27;20088;-61
2022/03/15 01:30:37;;;;;;;18.83;7.47;;;;;;;-1.55;100.00;100768.72;5152541;27;20046;-60
2022/03/15 01:33:03;;;;;;;16.40;7.40;;;;;;;-1.57;100.00;100768.13;5152768;27;20046;-60
2022/03/15 01:35:30;;;;;;;13.27;7.05;;;;;;;-1.61;100.00;100769.69;5152464;27;20145;-61
2022/03/15 01:37:56;;;;;;;17.20;7.60;;;;;;;-1.69;100.00;100777.09;5152398;27;20399;-60
2022/03/15 01:40:23;;;;;;;21.67;8.02;;;;;;;-1.74;100.00;100777.00;5152476;27;20069;-60
2022/03/15 01:42:50;;;;;;;21.25;8.68;;;;;;;-1.81;100.00;100775.53;5152636;27;20133;-61
2022/03/15 01:45:16;;;;;;;18.05;7.18;;;;;;;-1.81;100.00;100802.41;5152279;27;20047;-60
2022/03/15 01:47:43;;;;;;;17.10;7.93;;;;;;;-1.84;100.00;100805.59;5152483;27;20058;-60
2022/03/15 01:50:10;;;;;;;15.05;7.07;;;;;;;-1.85;100.00;100820.09;5152452;27;20074;-61
2022/03/15 01:52:36;;;;;;;17.20;7.47;;;;;;;-1.82;100.00;100833.06;5152348;27;20603;-60
2022/03/15 01:55:05;;;;;;;12.30;6.55;;;;;;;-1.81;100.00;100848.13;5152475;27;20047;-60
2022/03/15 01:57:32;;;;;;;19.60;8.93;;;;;;;-1.79;100.00;100862.16;5152101;27;20137;-60
2022/03/15 01:59:59;;;;;;;17.63;8.43;;;;;;;-1.84;100.00;100864.75;5152534;27;20042;-60
2022/03/15 02:02:25;;;;;;;18.52;8.77;;;;;;;-1.88;100.00;100860.91;5152166;27;20053;-61
2022/03/15 02:04:51;;;;;;;17.95;8.77;;;;;;;-1.87;100.00;100873.28;5151847;27;20398;-60
2022/03/15 02:07:17;;;;;;;13.85;6.90;;;;;;;-1.86;100.00;100877.63;5152084;27;20414;-61
2022/03/15 02:09:44;;;;;;;15.75;7.18;;;;;;;-1.90;100.00;100870.03;5152086;27;20057;-60
2022/03/15 02:12:10;;;;;;;15.13;6.50;;;;;;;-1.86;100.00;100874.94;5152044;27;20061;-60
2022/03/15 02:14:37;;;;;;;18.58;6.95;;;;;;;-1.88;100.00;100877.84;5152071;27;20102;-60
2022/03/15 02:17:04;;;;;;;17.42;7.00;;;;;;;-1.86;100.00;100894.56;5152193;27;20073;-60
2022/03/15 02:19:30;;;;;;;20.88;9.55;;;;;;;-1.81;100.00;100900.03;5151850;27;20047;-61
2022/03/15 02:21:57;;;;;;;25.70;9.50;;;;;;;-1.85;100.00;100903.44;5152160;27;20489;-60
2022/03/15 02:24:24;;;;;;;25.25;8.40;;;;;;;-1.91;100.00;100908.69;5151854;27;20043;-60
2022/03/15 02:26:51;;;;;;;21.30;7.93;;;;;;;-1.90;100.00;100915.72;5152002;27;20064;-60
2022/03/15 02:29:17;;;;;;;16.50;6.78;;;;;;;-1.92;100.00;100923.22;5151990;27;20104;-60
2022/03/15 02:31:44;;;;;;;20.80;7.78;;;;;;;-1.86;100.00;100934.88;5152047;27;20090;-60
2022/03/15 02:34:10;;;;;;;14.50;7.00;;;;;;;-1.91;100.00;100932.91;5151655;27;20046;-60
2022/03/15 02:36:36;;;;;;;21.08;8.85;;;;;;;-1.90;100.00;100931.03;5151183;27;20059;-60
2022/03/15 02:39:03;;;;;;;15.23;7.55;;;;;;;-1.84;100.00;100938.13;5151490;27;20051;-60
2022/03/15 02:41:30;;;;;;;18.27;7.47;;;;;;;-1.83;100.00;100944.31;5151624;27;20053;-60
2022/03/15 02:43:56;;;;;;;18.42;7.32;;;;;;;-1.86;100.00;100934.88;5151569;27;20042;-60
2022/03/15 02:46:27;;;;;;;14.98;7.18;;;;;;;-1.94;100.00;100924.50;5151554;27;20050;-60
2022/03/15 02:48:53;;;;;;;16.83;7.63;;;;;;;-1.94;100.00;100930.69;5151730;27;20541;-60
2022/03/15 02:51:21;;;;;;;15.95;7.03;;;;;;;-1.94;100.00;100933.38;5151631;27;20141;-61
2022/03/15 02:53:48;;;;;;;15.75;7.80;;;;;;;-1.97;100.00;100930.34;5151626;27;20069;-60
2022/03/15 02:56:15;;;;;;;14.30;6.40;;;;;;;-2.01;100.00;100924.63;5151461;27;20061;-61
2022/03/15 02:58:42;;;;;;;13.30;6.93;;;;;;;-2.05;100.00;100926.16;5151610;27;20050;-60
2022/03/15 03:01:08;;;;;;;15.60;6.88;;;;;;;-2.07;100.00;100927.44;5151412;27;20057;-61
2022/03/15 03:03:35;;;;;;;14.68;6.47;;;;;;;-2.10;100.00;100930.63;5151157;27;20053;-60
2022/03/15 03:06:02;;;;;;;15.30;6.57;;;;;;;-2.18;100.00;100934.50;5150418;27;20404;-60
2022/03/15 03:08:30;;;;;;;14.57;7.15;;;;;;;-2.16;100.00;100946.66;5151265;27;20505;-60
2022/03/15 03:10:57;;;;;;;16.25;6.95;;;;;;;-2.14;100.00;100957.16;5151402;27;20046;-60
2022/03/15 03:13:26;;;;;;;14.18;7.45;;;;;;;-2.16;100.00;100968.16;5151271;27;20047;-60
2022/03/15 03:15:56;;;;;;;17.77;6.70;;;;;;;-2.14;100.00;100971.41;5151040;27;20095;-60
2022/03/15 03:18:23;;;;;;;12.68;7.25;;;;;;;-2.13;100.00;100985.69;5150989;27;20137;-60
2022/03/15 03:20:50;;;;;;;15.30;7.30;;;;;;;-2.16;100.00;100978.09;5151400;27;20053;-61
2022/03/15 03:23:17;;;;;;;18.63;6.95;;;;;;;-2.17;100.00;100977.25;5151104;27;20062;-60
2022/03/15 03:25:43;;;;;;;16.83;7.65;;;;;;;-2.21;100.00;100980.66;5151261;27;20066;-60
2022/03/15 03:28:12;;;;;;;16.55;6.68;;;;;;;-2.18;100.00;100990.91;5150921;27;20054;-61
2022/03/15 03:30:39;;;;;;;13.57;7.55;;;;;;;-2.13;100.00;100999.09;5150954;27;20046;-61
2022/03/15 03:33:05;;;;;;;15.35;7.45;;;;;;;-2.17;100.00;100998.72;5151039;27;20102;-60
2022/03/15 03:35:32;;;;;;;18.27;6.68;;;;;;;-2.18;100.00;100991.75;5150693;27;20051;-61
2022/03/15 03:37:58;;;;;;;13.85;6.93;;;;;;;-2.21;100.00;100994.88;5150619;27;20061;-60
2022/03/15 03:40:24;;;;;;;16.85;7.30;;;;;;;-2.21;100.00;100994.06;5150953;27;20050;-60
2022/03/15 03:42:51;;;;;;;13.52;7.32;;;;;;;-2.15;100.00;100999.31;5150826;27;20043;-61
2022/03/15 03:45:17;;;;;;;17.00;7.88;;;;;;;-2.19;100.00;100986.63;5150810;27;20054;-60
2022/03/15 03:47:44;;;;;;;17.27;8.35;;;;;;;-2.20;100.00;101001.06;5151172;27;20047;-61
2022/03/15 03:50:11;;;;;;;15.57;7.72;;;;;;;-2.21;100.00;101004.81;5150502;27;20055;-60
2022/03/15 03:52:37;;;;;;;14.48;6.85;;;;;;;-2.24;100.00;100999.91;5151133;27;20050;-61
2022/03/15 03:55:04;;;;;;;15.25;8.05;;;;;;;-2.28;100.00;101001.44;5150689;27;20437;-60
2022/03/15 03:57:30;;;;;;;18.52;7.53;;;;;;;-2.35;100.00;100993.50;5150987;27;20051;-61
2022/03/15 03:59:57;;;;;;;16.30;7.30;;;;;;;-2.36;100.00;100997.25;5150611;27;20107;-60
2022/03/15 04:02:24;;;;;;;13.13;6.85;;;;;;;-2.38;100.00;100997.47;5150633;27;20139;-61
2022/03/15 04:04:51;;;;;;;17.55;7.07;;;;;;;-2.46;100.00;100994.34;5150409;27;20047;-60
2022/03/15 04:07:18;;;;;;;14.82;7.53;;;;;;;-2.48;100.00;100996.44;5150655;27;20407;-60
2022/03/15 04:09:44;;;;;;;15.10;6.72;;;;;;;-2.49;100.00;101002.88;5150311;27;20047;-60
2022/03/15 04:12:10;;;;;;;19.50;7.10;;;;;;;-2.46;100.00;101005.91;5150490;27;20051;-61
2022/03/15 04:14:37;;;;;;;15.75;8.50;;;;;;;-2.40;100.00;101010.34;5150732;27;20058;-60
2022/03/15 04:17:04;;;;;;;18.35;8.02;;;;;;;-2.40;100.00;101021.09;5150911;27;20167;-60
2022/03/15 04:19:31;;;;;;;14.55;7.40;;;;;;;-2.34;100.00;101027.38;5154055;27;20065;-60
2022/03/15 04:21:58;;;;;;;14.35;7.00;;;;;;;-2.41;100.00;101021.31;5153925;27;20054;-60
2022/03/15 04:24:26;;;;;;;17.33;7.57;;;;;;;-2.41;100.00;101021.31;5154083;27;20043;-60
2022/03/15 04:26:52;;;;;;;17.80;7.65;;;;;;;-2.41;100.00;101023.97;5153660;27;20047;-60
2022/03/15 04:29:19;;;;;;;21.40;7.40;;;;;;;-2.44;100.00;101017.19;5153847;27;20050;-60
2022/03/15 04:31:45;;;;;;;13.98;7.35;;;;;;;-2.42;100.00;101023.19;5153442;27;20062;-60
2022/03/15 04:34:11;;;;;;;13.60;7.22;;;;;;;-2.39;100.00;101019.22;5153737;27;20137;-61
2022/03/15 04:36:40;;;;;;;16.23;7.80;;;;;;;-2.40;100.00;101026.47;5153276;27;20057;-60
2022/03/15 04:39:07;;;;;;;16.02;7.47;;;;;;;-2.34;100.00;101023.88;5153561;27;20501;-60
2022/03/15 04:41:34;;;;;;;15.02;7.95;;;;;;;-2.31;100.00;101020.72;5153706;27;20099;-60
2022/03/15 04:44:00;;;;;;;16.00;7.75;;;;;;;-2.24;100.00;101019.53;5153131;27;20064;-60
2022/03/15 04:46:26;;;;;;;14.00;7.28;;;;;;;-2.18;100.00;101007.84;5153401;27;20082;-60
2022/03/15 04:48:53;;;;;;;15.52;7.07;;;;;;;-2.23;100.00;101007.75;5153319;27;20047;-60
2022/03/15 04:51:20;;;;;;;18.50;7.70;;;;;;;-2.19;100.00;101000.84;5153639;27;20054;-60
2022/03/15 04:53:47;;;;;;;18.23;8.23;;;;;;;-2.17;100.00;100995.25;5153077;27;20042;-60
2022/03/15 04:56:14;;;;;;;15.50;7.47;;;;;;;-2.14;100.00;100997.44;5153134;27;20050;-60
2022/03/15 04:58:40;;;;;;;15.05;7.30;;;;;;;-2.09;100.00;101000.25;5139957;27;20047;-65
2022/03/15 05:01:07;;;;;;;17.88;7.65;;;;;;;-2.05;100.00;100993.34;5140375;27;20047;-63
2022/03/15 05:03:35;;;;;;;15.27;7.43;;;;;;;-1.98;100.00;100985.16;5135320;27;20088;-65
2022/03/15 05:06:02;;;;;;;17.15;7.32;;;;;;;-1.92;100.00;100978.84;5132092;28;20058;-66
2022/03/15 05:08:28;;;;;;;17.23;6.90;;;;;;;-1.81;100.00;100971.78;5132426;28;20047;-65
2022/03/15 05:11:06;;;;;;;22.42;8.40;;;;;;;-1.06;100.00;100982.34;5132396;28;20047;-65
2022/03/15 05:13:35;;;;;;;15.90;7.55;;;;;;;0.53;100.00;100973.75;5132449;28;20087;-65
2022/03/15 05:16:01;;;;;;;15.43;7.47;;;;;;;1.73;100.00;100865.22;5132099;28;20051;-66
2022/03/15 05:18:27;;;;;;;15.35;7.50;;;;;;;2.74;100.00;100564.03;5132201;28;20567;-66
2022/03/15 05:20:54;;;;;;;17.63;7.78;;;;;;;3.47;100.00;100104.31;5131708;28;20425;-66
2022/03/15 05:23:20;;;;;;;16.77;7.65;;;;;;;4.17;100.00;99807.63;5131744;28;20050;-65
2022/03/15 05:25:47;;;;;;;15.50;8.32;;;;;;;4.80;100.00;99708.03;5132091;28;20054;-64
2022/03/15 05:28:13;;;;;;;14.13;7.70;;;;;;;5.38;100.00;99702.31;5131277;27;20070;-64
2022/03/15 05:30:40;;;;;;;14.35;7.78;;;;;;;5.85;100.00;99746.03;5131608;28;20529;-61
2022/03/15 05:33:06;;;;;;;14.45;7.57;;;;;;;6.23;100.00;99791.75;5131882;28;20430;-72
2022/03/15 05:35:32;;;;;;;14.07;7.95;;;;;;;6.66;100.00;99836.41;5131828;28;20429;-69
2022/03/15 05:37:59;;;;;;;14.18;8.70;;;;;;;7.02;100.00;99872.25;5131893;28;20126;-66
2022/03/15 05:40:25;;;;;;;16.58;9.27;;;;;;;7.14;100.00;99909.78;5134048;27;20467;-69
2022/03/15 05:42:51;;;;;;;18.77;9.20;;;;;;;7.53;100.00;99918.81;5146279;27;20050;-64
2022/03/15 05:45:18;;;;;;;16.77;9.52;;;;;;;7.80;100.00;99944.91;5131912;28;20116;-66
2022/03/15 05:47:45;;;;;;;28.33;10.35;;;;;;;8.14;100.00;99960.34;5131020;28;20562;-66
2022/03/15 05:50:11;;;;;;;30.55;10.93;;;;;;;8.45;100.00;99981.88;5131780;28;20047;-65
2022/03/15 05:52:37;;;;;;;34.80;10.80;;;;;;;8.65;100.00;99993.97;5148781;27;20050;-65
2022/03/15 05:55:04;;;;;;;25.10;11.00;;;;;;;8.93;100.00;100013.44;5152146;27;20505;-66
2022/03/15 05:57:30;;;;;;;25.10;12.35;;;;;;;9.03;100.00;100027.81;5151592;27;20047;-63
2022/03/15 05:59:56;;;;;;;234.63;55.80;;;;;;;9.39;100.00;100027.19;5151995;27;20051;-64
2022/03/15 06:02:23;;;;;;;278.80;69.82;;;;;;;9.68;100.00;100058.34;5147920;27;20054;-64
2022/03/15 06:04:50;;;;;;;535.08;148.93;;;;;;;10.06;100.00;100058.94;5146097;27;20506;-66
2022/03/15 06:07:16;;;;;;;697.65;220.38;;;;;;;10.29;100.00;100077.69;5151049;27;20055;-66
2022/03/15 06:09:42;;;;;;;798.60;273.85;;;;;;;10.17;100.00;100092.16;5152123;27;20051;-68
2022/03/15 06:12:10;;;;;;;443.88;129.57;;;;;;;10.51;100.00;100080.00;5141481;27;20082;-65
2022/03/15 06:14:36;;;;;;;320.90;86.25;;;;;;;10.53;100.00;100087.88;5130973;27;20096;-66
2022/03/15 06:17:04;;;;;;;320.80;86.32;;;;;;;10.86;100.00;100090.50;5131281;28;20079;-61
2022/03/15 06:19:30;;;;;;;413.95;119.10;;;;;;;11.08;100.00;100094.72;5131420;28;20441;-63
2022/03/15 06:21:57;;;;;;;349.75;103.28;;;;;;;11.20;100.00;100108.44;5141532;27;20058;-62
2022/03/15 06:24:26;;;;;;;59.08;23.77;;;;;;;11.65;100.00;100109.34;5149156;27;20059;-63
2022/03/15 06:26:53;;;;;;;80.00;29.75;;;;;;;12.03;100.00;100119.88;5139772;27;20051;-65
2022/03/15 06:29:19;;;;;;;52.50;22.85;;;;;;;12.18;100.00;100140.28;5131138;28;20484;-66
2022/03/15 06:31:46;;;;;;;128.93;42.45;;;;;;;12.16;100.00;100143.41;5139780;27;20043;-65
2022/03/15 06:34:12;;;;;;;63.58;22.70;;;;;;;12.67;100.00;100138.03;5151558;27;20046;-65
2022/03/15 06:36:39;;;;;;;59.50;24.23;;;;;;;12.54;100.00;100166.78;5150938;27;20501;-65
2022/03/15 06:39:06;;;;;;;41.90;18.90;;;;;;;12.50;100.00;100174.13;5150694;27;20058;-67
2022/03/15 06:41:37;;;;;;;50.25;21.00;;;;;;;12.64;100.00;100162.69;5135108;27;20097;-69
2022/03/15 06:44:05;;;;;;;21.88;13.05;;;;;;;12.74;100.00;100180.63;5142671;27;20046;-69
2022/03/15 06:46:31;;;;;;;24.00;13.23;;;;;;;12.93;100.00;100188.97;5151090;27;20050;-64
2022/03/15 06:48:58;;;;;;;19.55;12.25;;;;;;;13.26;100.00;100177.63;5150595;27;20050;-63
2022/03/15 06:51:24;;;;;;;23.70;12.70;;;;;;;13.50;100.00;100187.59;5151314;27;20051;-66
2022/03/15 06:53:51;;;;;;;22.35;12.70;;;;;;;13.67;100.00;100191.09;5151296;27;20073;-67
2022/03/15 06:56:18;;;;;;;21.50;11.70;;;;;;;14.15;100.00;100194.44;5151328;27;20051;-66
2022/03/15 06:58:44;;;;;;;17.90;10.98;;;;;;;14.20;97.09;100206.00;5134698;27;20112;-65
2022/03/15 07:01:10;;;;;;;19.67;11.18;;;;;;;14.44;92.98;100218.66;5130559;28;20043;-68
2022/03/15 07:03:37;;;;;;;20.45;11.13;;;;;;;14.45;91.14;100224.97;5146465;27;20042;-68
2022/03/15 07:06:03;;;;;;;20.05;11.52;;;;;;;14.29;92.58;100223.09;5151149;27;20042;-70
2022/03/15 07:08:30;;;;;;;21.50;12.32;;;;;;;14.44;93.86;100206.84;5150451;27;20054;-65
2022/03/15 07:10:56;;;;;;;21.48;12.40;;;;;;;14.46;91.41;100224.63;5133473;27;20053;-63
2022/03/15 07:13:23;;;;;;;24.48;12.93;;;;;;;14.73;90.73;100222.78;5130433;28;20417;-63
2022/03/15 07:15:49;;;;;;;17.50;12.40;;;;;;;15.05;91.76;100215.03;5130415;27;20051;-63
2022/03/15 07:18:18;;;;;;;24.17;13.30;;;;;;;15.27;88.05;100218.94;5129240;27;20161;-63
2022/03/15 07:20:44;;;;;;;26.83;14.30;;;;;;;14.89;88.08;100228.16;5139234;27;20134;-65
2022/03/15 07:23:10;;;;;;;23.05;14.43;;;;;;;15.20;88.71;100220.81;5137401;27;20051;-66
2022/03/15 07:25:37;;;;;;;26.42;14.13;;;;;;;15.21;85.52;100227.91;5130121;28;20142;-65
2022/03/15 07:28:03;;;;;;;24.45;15.52;;;;;;;15.10;85.81;100230.53;5130298;28;20502;-69
2022/03/15 07:30:30;;;;;;;28.52;15.98;;;;;;;15.24;84.14;100236.25;5135117;27;20114;-66
2022/03/15 07:32:59;;;;;;;26.95;15.07;;;;;;;15.23;86.35;100234.69;5136345;27;20506;-65
2022/03/15 07:35:25;;;;;;;27.17;14.65;;;;;;;15.30;84.79;100232.03;5143424;27;20485;-64
2022/03/15 07:37:53;;;;;;;26.15;15.93;;;;;;;15.50;81.71;100243.78;5150179;27;20050;-63
2022/03/15 07:40:19;;;;;;;26.13;15.63;;;;;;;15.49;79.99;100261.53;5143342;27;20099;-62
2022/03/15 07:42:46;;;;;;;30.35;15.43;;;;;;;15.70;79.34;100252.78;5150766;27;20531;-63
2022/03/15 07:45:12;;;;;;;25.23;15.75;;;;;;;15.63;78.74;100251.88;5150799;27;20051;-64
2022/03/15 07:47:39;;;;;;;28.02;16.13;;;;;;;15.72;80.92;100247.66;5147742;27;20055;-66
2022/03/15 07:50:06;;;;;;;24.33;14.93;;;;;;;15.66;77.06;100251.09;5146084;27;20099;-63
2022/03/15 07:52:32;;;;;;;25.70;15.27;;;;;;;15.85;78.25;100245.47;5139758;27;20049;-69
2022/03/15 07:54:59;;;;;;;29.15;15.38;;;;;;;16.05;78.14;100245.34;5149490;27;20058;-68
2022/03/15 07:57:25;;;;;;;24.75;15.25;;;;;;;16.15;77.15;100245.47;5145036;27;20940;-65
2022/03/15 07:59:51;;;;;;;22.40;13.75;;;;;;;16.14;74.23;100254.97;5154316;27;20047;-66
2022/03/15 08:02:18;;;;;;;25.38;14.50;;;;;;;16.35;76.17;100250.84;5135302;27;20051;-62
2022/03/15 08:04:45;;;;;;;19.67;12.65;;;;;;;16.16;72.29;100262.88;5134343;27;20049;-67
2022/03/15 08:07:11;;;;;;;23.15;12.82;;;;;;;16.19;74.21;100245.53;5143621;27;20050;-65
2022/03/15 08:09:38;;;;;;;20.40;12.88;;;;;;;16.32;74.46;100244.09;5145537;27;20127;-65
2022/03/15 08:12:05;;;;;;;24.05;12.98;;;;;;;16.23;73.03;100238.88;5133753;27;20051;-62
2022/03/15 08:14:31;;;;;;;16.02;10.27;;;;;;;16.28;71.89;100245.25;5132973;28;20058;-65
2022/03/15 08:16:58;;;;;;;28.85;16.83;;;;;;;16.77;69.32;100245.03;5132842;28;20081;-66
2022/03/15 08:19:26;;;;;;;19.42;11.70;;;;;;;16.99;70.61;100242.44;5133032;27;20520;-66
2022/03/15 08:21:53;;;;;;;21.05;11.80;;;;;;;17.08;68.82;100246.50;5139941;27;20153;-66
2022/03/15 08:24:22;;;;;;;22.95;11.55;;;;;;;17.38;70.69;100240.00;5134431;27;20058;-65
2022/03/15 08:26:48;;;;;;;18.33;11.13;;;;;;;17.92;66.81;100232.03;5138326;27;20058;-64
2022/03/15 08:29:14;;;;;;;23.27;13.18;;;;;;;17.69;66.14;100244.16;5151726;27;20103;-66
2022/03/15 08:31:40;;;;;;;18.75;12.02;;;;;;;17.71;66.33;100255.69;5133613;27;20047;-68
2022/03/15 08:34:07;;;;;;;16.85;11.15;;;;;;;17.64;65.18;100250.09;5137879;27;20097;-68
2022/03/15 08:36:34;;;;;;;18.58;11.82;;;;;;;17.44;66.22;100251.53;5132192;28;20407;-67
2022/03/15 08:39:01;;;;;;;23.90;11.43;;;;;;;17.49;65.89;100251.94;5132302;28;20120;-68
2022/03/15 08:41:27;;;;;;;17.35;11.05;;;;;;;17.49;67.35;100251.94;5132292;28;20124;-67
2022/03/15 08:43:53;;;;;;;20.00;11.38;;;;;;;17.87;67.05;100252.63;5148633;27;20047;-67
2022/03/15 08:46:19;;;;;;;19.75;11.32;;;;;;;17.60;66.68;100252.84;5152051;27;20057;-68
2022/03/15 08:48:46;;;;;;;20.15;11.80;;;;;;;17.61;66.40;100253.63;5151733;27;20138;-67
2022/03/15 08:51:12;;;;;;;22.02;12.35;;;;;;;17.51;65.20;100257.13;5137439;27;20049;-67
2022/03/15 08:53:38;;;;;;;19.65;11.80;;;;;;;17.42;64.56;100258.25;5132633;27;20421;-60
2022/03/15 08:56:06;;;;;;;20.95;12.10;;;;;;;17.40;65.03;100252.31;5132855;27;20047;-67
2022/03/15 08:58:33;;;;;;;22.17;11.23;;;;;;;17.41;65.32;100264.19;5144302;27;20054;-68
2022/03/15 09:00:59;;;;;;;22.10;9.77;;;;;;;17.19;65.49;100257.66;5133365;27;20061;-67
2022/03/15 09:03:25;;;;;;;19.90;11.57;;;;;;;17.28;67.49;100249.03;5141302;27;20053;-67
2022/03/15 09:05:51;;;;;;;23.08;12.43;;;;;;;17.18;66.54;100248.56;5131778;28;20123;-67
2022/03/15 09:08:18;;;;;;;21.45;11.52;;;;;;;17.28;66.84;100249.81;5132168;28;20137;-68
2022/03/15 09:10:44;;;;;;;22.60;12.05;;;;;;;17.40;65.53;100249.53;5148470;27;20490;-66
2022/03/15 09:13:11;;;;;;;22.65;11.88;;;;;;;17.42;65.85;100246.34;5152531;27;20058;-66
2022/03/15 09:15:38;;;;;;;21.98;11.93;;;;;;;17.11;65.91;100244.94;5152422;27;20053;-66
2022/03/15 09:18:04;;;;;;;20.30;11.38;;;;;;;16.71;66.92;100241.75;5152559;27;20060;-64
2022/03/15 09:20:30;;;;;;;19.25;10.27;;;;;;;16.27;67.23;100240.88;5147082;27;20053;-67
2022/03/15 09:22:57;;;;;;;20.15;11.00;;;;;;;15.81;68.09;100232.78;5141987;27;20051;-68
2022/03/15 09:25:23;;;;;;;22.75;11.60;;;;;;;15.70;67.88;100227.13;5131731;28;20472;-68
2022/03/15 09:27:50;;;;;;;18.77;11.18;;;;;;;16.03;68.35;100231.91;5131607;28;20047;-66
2022/03/15 09:30:17;;;;;;;21.05;11.02;;;;;;;16.14;68.34;100232.03;5131668;28;20421;-66
2022/03/15 09:32:44;;;;;;;20.75;10.18;;;;;;;16.21;67.61;100234.88;5131787;28;20057;-66
2022/03/15 09:35:10;;;;;;;17.70;9.80;;;;;;;16.31;67.93;100236.19;5131441;27;20108;-65
2022/03/15 09:37:37;;;;;;;18.38;10.32;;;;;;;16.38;68.07;100234.28;5131526;28;20055;-65
2022/03/15 09:40:08;;;;;;;21.30;10.23;;;;;;;16.34;64.69;100236.22;5131655;28;20054;-65
2022/03/15 09:42:36;;;;;;;19.42;10.45;;;;;;;16.12;66.58;100232.41;5131854;28;20099;-65
2022/03/15 09:45:04;;;;;;;16.00;9.82;;;;;;;16.00;66.35;100238.19;5131573;28;20051;-67
2022/03/15 09:47:33;;;;;;;14.80;9.40;;;;;;;15.74;65.79;100236.25;5131631;28;20505;-67
2022/03/15 09:50:03;;;;;;;15.30;9.40;;;;;;;15.78;68.21;100231.56;5131213;28;20051;-67
2022/03/15 09:52:30;;;;;;;18.27;10.55;;;;;;;15.74;66.86;100236.25;5130829;28;20051;-67
2022/03/15 09:54:57;;;;;;;19.05;9.55;;;;;;;15.74;67.73;100237.03;5130893;28;20047;-66
2022/03/15 09:57:23;;;;;;;15.98;9.52;;;;;;;15.78;67.25;100226.03;5131272;28;20047;-68
2022/03/15 09:59:51;;;;;;;14.60;9.80;;;;;;;15.69;67.56;100222.75;5132286;27;20047;-66
2022/03/15 10:02:17;;;;;;;19.70;9.70;;;;;;;15.76;67.61;100220.06;5131437;27;20061;-66
2022/03/15 10:04:44;;;;;;;15.13;9.65;;;;;;;15.80;66.60;100226.47;5140866;27;20051;-66
2022/03/15 10:07:12;;;;;;;17.00;9.95;;;;;;;15.50;65.61;100232.72;5151564;27;20149;-66
2022/03/15 10:09:40;;;;;;;18.77;9.40;;;;;;;15.57;67.08;100220.19;5143353;27;20046;-66
2022/03/15 10:12:08;;;;;;;20.13;11.35;;;;;;;15.69;69.66;100222.75;5131006;28;20430;-68
2022/03/15 10:14:41;;;;;;;32.25;12.40;;;;;;;15.79;68.93;100211.03;5130892;27;20482;-67
2022/03/15 10:17:08;;;;;;;28.77;12.52;;;;;;;15.92;70.37;100212.38;5133945;27;20062;-68
2022/03/15 10:19:34;;;;;;;19.90;11.82;;;;;;;15.81;66.34;100230.03;5131486;27;20422;-67
2022/03/15 10:22:02;;;;;;;18.73;8.43;;;;;;;15.51;63.73;100228.00;5139570;27;20062;-67
2022/03/15 10:24:29;;;;;;;21.50;9.00;;;;;;;15.27;64.47;100227.25;5138334;27;20082;-66
2022/03/15 10:26:57;;;;;;;15.73;8.73;;;;;;;14.86;65.72;100219.81;5140237;27;20528;-67
2022/03/15 10:29:27;;;;;;;20.80;10.63;;;;;;;14.78;66.20;100213.41;5142897;27;20066;-69
2022/03/15 10:31:53;;;;;;;24.75;12.85;;;;;;;14.90;66.69;100210.47;5131073;27;20051;-66
2022/03/15 10:34:21;;;;;;;25.58;12.27;;;;;;;14.79;67.59;100199.25;5138559;27;20058;-66
2022/03/15 10:36:50;;;;;;;22.45;12.35;;;;;;;14.74;68.13;100202.28;5132535;27;20051;-66
2022/03/15 10:39:18;;;;;;;19.33;10.48;;;;;;;14.62;66.24;100205.22;5130342;28;20051;-61
2022/03/15 10:41:46;;;;;;;20.08;10.13;;;;;;;14.48;66.87;100200.22;5130708;28;20142;-66
2022/03/15 10:44:17;;;;;;;19.00;10.75;;;;;;;14.42;65.84;100200.88;5135263;27;20078;-67
2022/03/15 10:46:44;;;;;;;31.63;17.23;;;;;;;14.47;69.69;100186.78;5141139;27;20523;-65
2022/03/15 10:49:10;;;;;;;29.85;16.70;;;;;;;14.55;69.95;100174.75;5143877;27;20047;-64
2022/03/15 10:51:37;;;;;;;39.58;20.90;;;;;;;14.66;70.87;100173.00;5129867;27;20055;-67
2022/03/15 10:54:05;;;;;;;45.92;20.70;;;;;;;14.65;71.31;100167.81;5130928;27;20046;-65
2022/03/15 10:56:32;;;;;;;48.53;20.17;;;;;;;14.71;71.42;100172.66;5137693;27;20138;-65
2022/03/15 10:59:00;;;;;;;37.47;18.10;;;;;;;14.53;69.18;100166.84;5133250;27;20570;-65
2022/03/15 11:01:27;;;;;;;34.22;18.40;;;;;;;14.61;71.34;100165.00;5128623;28;20051;-65
2022/03/15 11:03:56;;;;;;;31.65;14.75;;;;;;;14.87;70.39;100160.72;5133386;27;20054;-65
2022/03/15 11:06:30;;;;;;;23.52;13.48;;;;;;;14.63;67.79;100159.91;5143968;27;20150;-63